Time;durP1;ratioP1;P1;durP2;ratioP2;P2;SDS_P1;SDS_P2;PMS_P1;PMS_P2;Temp;Humidity;BMP_temperature;BMP_pressure;BME280_temperature;BME280_humidity;BME280_pressure;Samples;Min_cycle;Max_cycle;Signal;HPM_P1;HPM_P2
2022/05/21 00:01:36;;;;;;;5.68;2.55;;;;;;;28.62;45.70;99992.50;5058022;28;20021;-83
2022/05/21 00:04:02;;;;;;;5.32;2.60;;;;;;;28.61;46.01;99992.66;5057959;28;20056;-83
2022/05/21 00:06:28;;;;;;;5.05;2.25;;;;;;;28.59;46.04;99984.72;5057876;28;20021;-83
2022/05/21 00:08:53;;;;;;;5.68;2.53;;;;;;;28.60;45.74;99986.41;5057535;28;20082;-81
2022/05/21 00:11:19;;;;;;;4.55;2.40;;;;;;;28.59;45.81;99987.41;5057653;28;20081;-81
2022/05/21 00:13:47;;;;;;;4.82;2.47;;;;;;;28.57;46.09;99983.97;5057909;28;20488;-83
2022/05/21 00:16:13;;;;;;;4.65;2.38;;;;;;;28.58;45.83;99980.34;5058016;28;20032;-83
2022/05/21 00:18:39;;;;;;;4.32;2.70;;;;;;;28.55;45.77;99991.31;5059187;28;20032;-83
2022/05/21 00:21:05;;;;;;;4.18;2.03;;;;;;;28.54;45.83;99978.88;5076918;28;20050;-84
2022/05/21 00:23:33;;;;;;;4.35;2.33;;;;;;;28.53;46.19;99985.25;5059004;28;20032;-82
2022/05/21 00:26:03;;;;;;;4.75;2.60;;;;;;;28.51;46.22;99981.81;5059389;28;20032;-86
2022/05/21 00:28:29;;;;;;;5.03;2.75;;;;;;;28.52;45.88;99983.56;5078886;28;20121;-82
2022/05/21 00:30:56;;;;;;;7.25;2.60;;;;;;;28.51;45.84;99973.75;5079050;28;20024;-84
2022/05/21 00:33:23;;;;;;;6.68;2.80;;;;;;;28.50;46.06;99980.13;5061499;28;20024;-85
2022/05/21 00:35:49;;;;;;;5.28;2.85;;;;;;;28.49;45.83;99986.47;5062602;28;20029;-86
2022/05/21 00:38:15;;;;;;;4.05;2.17;;;;;;;28.48;45.97;99979.41;5079979;28;20076;-87
2022/05/21 00:40:42;;;;;;;5.47;2.47;;;;;;;28.47;45.89;99969.66;5062821;28;20059;-86
2022/05/21 00:43:45;;;;;;;3.85;2.17;;;;;;;28.45;45.78;99963.56;5062184;28;20043;-83
2022/05/21 00:46:19;;;;;;;3.92;2.38;;;;;;;28.43;45.85;99965.53;5086394;28;20008;-84
2022/05/21 00:48:50;;;;;;;5.60;2.50;;;;;;;28.43;45.91;99962.84;5081031;28;20020;-84
2022/05/21 00:51:20;;;;;;;4.30;2.20;;;;;;;28.40;46.37;99962.13;5059778;28;20447;-83
2022/05/21 00:53:50;;;;;;;4.60;2.50;;;;;;;28.38;46.15;99953.34;5059915;28;20032;-82
2022/05/21 00:56:17;;;;;;;4.38;2.80;;;;;;;28.38;46.06;99957.88;5059775;28;20047;-82
2022/05/21 01:01:34;;;;;;;4.35;2.28;;;;;;;28.37;45.91;99956.19;5078058;28;20390;-84
2022/05/21 01:03:59;;;;;;;3.75;2.25;;;;;;;28.35;46.21;99952.75;5059995;28;20112;-82
2022/05/21 01:06:25;;;;;;;7.10;2.25;;;;;;;28.33;46.24;99957.41;5062164;28;20099;-81
2022/05/21 01:08:51;;;;;;;4.88;2.33;;;;;;;28.33;46.04;99960.09;5059784;28;20024;-81
2022/05/21 01:11:19;;;;;;;5.05;2.42;;;;;;;28.32;46.31;99945.81;5059790;28;20020;-81
2022/05/21 01:13:47;;;;;;;3.65;2.30;;;;;;;28.30;46.02;99953.16;5060287;28;20461;-83
2022/05/21 01:16:13;;;;;;;6.50;2.50;;;;;;;28.29;46.28;99946.09;5077590;28;20031;-82
2022/05/21 01:18:39;;;;;;;4.97;2.60;;;;;;;28.29;45.93;99940.72;5060185;28;20024;-82
2022/05/21 01:21:05;;;;;;;4.80;2.67;;;;;;;28.28;45.97;99939.03;5077943;28;20025;-82
2022/05/21 01:23:31;;;;;;;4.55;2.38;;;;;;;28.26;46.00;99930.25;5077688;28;20038;-82
2022/05/21 01:25:59;;;;;;;5.03;2.63;;;;;;;28.27;46.01;99934.63;5077260;28;20021;-82
2022/05/21 01:28:27;;;;;;;4.15;2.20;;;;;;;28.25;46.07;99931.22;5059427;28;20063;-82
2022/05/21 01:30:56;;;;;;;5.35;2.45;;;;;;;28.24;45.96;99919.63;5060534;28;20056;-81
2022/05/21 01:33:28;;;;;;;5.50;2.45;;;;;;;28.24;46.03;99929.53;5059237;28;20036;-82
2022/05/21 01:35:54;;;;;;;4.03;2.40;;;;;;;28.22;45.92;99910.00;5059270;28;20055;-82
2022/05/21 01:38:21;;;;;;;3.90;2.28;;;;;;;28.22;46.04;99924.28;5076796;28;20446;-83
2022/05/21 01:40:47;;;;;;;4.85;2.45;;;;;;;28.21;46.03;99924.38;5076865;28;20424;-83
2022/05/21 01:45:58;;;;;;;5.22;2.40;;;;;;;28.18;46.23;99924.66;5077025;28;20112;-83
2022/05/21 01:48:26;;;;;;;5.43;2.40;;;;;;;28.17;46.32;99922.97;5059213;28;20098;-83
2022/05/21 01:50:54;;;;;;;5.00;2.70;;;;;;;28.14;46.20;99918.69;5077010;28;20107;-81
2022/05/21 01:53:21;;;;;;;3.80;2.05;;;;;;;28.14;46.08;99913.34;5058929;28;20024;-81
2022/05/21 01:55:47;;;;;;;3.70;2.03;;;;;;;28.11;46.42;99914.44;5057808;28;20517;-82
2022/05/21 01:58:14;;;;;;;4.47;2.20;;;;;;;28.12;46.28;99912.59;5076610;28;20056;-83
2022/05/21 02:00:40;;;;;;;3.22;1.92;;;;;;;28.11;46.11;99906.41;5076647;28;20052;-82
2022/05/21 02:03:11;;;;;;;4.43;2.40;;;;;;;28.11;46.32;99902.84;5059174;28;20028;-82
2022/05/21 02:05:37;;;;;;;5.25;2.70;;;;;;;28.08;46.16;99903.97;5077253;28;20052;-82
2022/05/21 02:08:03;;;;;;;4.38;2.65;;;;;;;28.08;46.46;99897.75;5060244;28;20035;-81
2022/05/21 02:10:28;;;;;;;3.13;2.10;;;;;;;28.06;46.18;99894.34;5059090;28;20114;-83
2022/05/21 02:12:54;;;;;;;4.53;2.30;;;;;;;28.05;45.97;99901.56;5076944;28;20067;-82
2022/05/21 02:15:19;;;;;;;4.00;2.38;;;;;;;28.05;45.99;99898.00;5058884;28;20032;-82
2022/05/21 02:17:45;;;;;;;3.78;2.30;;;;;;;28.02;46.18;99891.06;5058762;28;20060;-82
2022/05/21 02:20:11;;;;;;;3.70;2.30;;;;;;;28.03;46.13;99895.44;5060363;28;20090;-83
2022/05/21 02:22:38;;;;;;;4.88;2.30;;;;;;;28.02;46.39;99883.03;5060553;28;20052;-83
2022/05/21 02:25:06;;;;;;;5.13;2.33;;;;;;;28.01;46.09;99876.81;5060025;28;20028;-81
2022/05/21 02:27:32;;;;;;;4.70;2.03;;;;;;;28.00;46.03;99872.41;5086676;28;20028;-84
2022/05/21 02:29:57;;;;;;;4.50;2.35;;;;;;;27.99;46.33;99868.03;5076673;28;20116;-81
2022/05/21 02:32:23;;;;;;;4.68;2.40;;;;;;;27.97;46.40;99870.00;5058421;28;20024;-81
2022/05/21 02:34:49;;;;;;;4.43;2.45;;;;;;;27.98;46.20;99868.16;5058195;28;20518;-81
2022/05/21 02:39:58;;;;;;;3.42;2.10;;;;;;;27.95;46.42;99871.13;5078894;28;20485;-82
2022/05/21 02:45:09;;;;;;;4.65;2.20;;;;;;;27.92;46.30;99863.31;5079610;28;20105;-82
2022/05/21 02:47:35;;;;;;;3.88;2.35;;;;;;;27.92;46.04;99866.00;5062606;28;20042;-85
2022/05/21 02:50:02;;;;;;;4.00;2.00;;;;;;;27.88;46.17;99855.56;5062463;28;20032;-85
2022/05/21 02:52:27;;;;;;;5.07;2.40;;;;;;;27.88;46.27;99858.22;5062752;28;20033;-85
2022/05/21 02:54:53;;;;;;;5.05;2.53;;;;;;;27.90;45.98;99857.25;5063411;28;20488;-83
2022/05/21 02:57:18;;;;;;;5.35;2.50;;;;;;;27.87;46.33;99853.84;5081113;28;20049;-82
2022/05/21 02:59:44;;;;;;;4.43;2.35;;;;;;;27.85;46.34;99850.44;5075738;28;20036;-83
2022/05/21 03:02:09;;;;;;;4.93;2.65;;;;;;;27.86;46.08;99846.78;5057543;28;20385;-81
2022/05/21 03:04:35;;;;;;;4.20;2.30;;;;;;;27.85;46.23;99850.44;5058044;28;20482;-82
2022/05/21 03:07:01;;;;;;;4.32;2.30;;;;;;;27.84;46.12;99843.38;5057578;28;20024;-82
2022/05/21 03:12:11;;;;;;;3.75;2.08;;;;;;;27.82;46.61;99842.66;5075489;28;20081;-82
2022/05/21 03:14:37;;;;;;;4.40;2.25;;;;;;;27.81;46.48;99843.66;5057630;28;20029;-82
2022/05/21 03:17:04;;;;;;;4.85;2.20;;;;;;;27.80;46.50;99849.97;5057193;28;20020;-82
2022/05/21 03:19:32;;;;;;;4.95;2.30;;;;;;;27.79;46.22;99842.91;5075063;28;20358;-81
2022/05/21 03:21:58;;;;;;;3.67;2.22;;;;;;;27.78;46.56;99843.91;5057306;28;20038;-82
2022/05/21 03:24:24;;;;;;;5.00;2.38;;;;;;;27.78;46.61;99849.25;5057520;28;20029;-81
2022/05/21 03:26:50;;;;;;;5.85;2.50;;;;;;;27.77;46.46;99838.66;5057088;28;20055;-82
2022/05/21 03:29:16;;;;;;;6.25;2.40;;;;;;;27.76;46.54;99835.13;5057104;28;20033;-81
2022/05/21 03:31:41;;;;;;;5.07;2.40;;;;;;;27.75;46.48;99838.81;5057206;28;20169;-81
2022/05/21 03:34:07;;;;;;;5.28;2.72;;;;;;;27.73;46.37;99830.03;5061401;28;20095;-82
2022/05/21 03:36:33;;;;;;;4.13;2.47;;;;;;;27.72;46.49;99828.31;5057334;28;20046;-82
2022/05/21 03:38:59;;;;;;;4.00;2.17;;;;;;;27.71;46.32;99826.63;5057333;28;20027;-82
2022/05/21 03:41:26;;;;;;;4.32;2.42;;;;;;;27.71;46.31;99821.28;5057402;28;20127;-81
2022/05/21 03:43:52;;;;;;;4.00;2.10;;;;;;;27.69;46.62;99829.44;5056924;28;20414;-82
2022/05/21 03:46:19;;;;;;;3.85;2.35;;;;;;;27.68;46.65;99824.19;5074681;28;20096;-82
2022/05/21 03:48:45;;;;;;;3.80;2.42;;;;;;;27.67;46.45;99819.81;5057171;28;20085;-81
2022/05/21 03:51:11;;;;;;;3.80;2.28;;;;;;;27.66;46.45;99827.03;5075082;28;20039;-81
2022/05/21 03:53:37;;;;;;;5.18;2.50;;;;;;;27.68;46.26;99824.19;5074880;28;20017;-81
2022/05/21 03:56:03;;;;;;;4.28;2.50;;;;;;;27.65;46.34;99827.16;5074507;28;20107;-81
2022/05/21 03:58:29;;;;;;;4.78;2.33;;;;;;;27.64;46.65;99825.44;5056567;28;20056;-82
2022/05/21 04:00:54;;;;;;;6.22;2.50;;;;;;;27.64;46.32;99826.28;5056865;28;20386;-82
2022/05/21 04:03:20;;;;;;;6.22;2.97;;;;;;;27.61;46.40;99827.38;5057116;28;20025;-82
2022/05/21 04:05:47;;;;;;;3.80;2.28;;;;;;;27.60;46.68;99828.38;5057463;28;20103;-84
2022/05/21 04:08:13;;;;;;;4.93;2.65;;;;;;;27.60;46.36;99836.41;5068470;28;20020;-84
2022/05/21 04:10:39;;;;;;;4.82;2.78;;;;;;;27.58;46.39;99833.03;5058100;28;20024;-85
2022/05/21 04:13:05;;;;;;;3.67;2.40;;;;;;;27.58;46.67;99822.31;5059705;28;20027;-84
2022/05/21 04:15:31;;;;;;;5.30;2.70;;;;;;;27.59;46.48;99818.63;5057029;28;20028;-83
2022/05/21 04:17:56;;;;;;;7.78;2.63;;;;;;;27.58;46.59;99822.31;5074619;28;20410;-83
2022/05/21 04:20:25;;;;;;;5.30;2.50;;;;;;;27.57;46.31;99820.56;5078312;28;20480;-82
2022/05/21 04:22:51;;;;;;;4.93;3.00;;;;;;;27.57;46.60;99819.72;5078340;28;20099;-82
2022/05/21 04:25:17;;;;;;;4.20;2.47;;;;;;;27.57;46.49;99819.72;5060717;28;20575;-82
2022/05/21 04:27:43;;;;;;;4.32;2.35;;;;;;;27.57;46.58;99820.56;5061155;28;20066;-83
2022/05/21 04:30:16;;;;;;;3.38;2.28;;;;;;;27.56;46.24;99816.16;5060424;28;20113;-81
2022/05/21 04:32:44;;;;;;;4.68;2.53;;;;;;;27.56;46.58;99810.81;5060310;28;20052;-83
2022/05/21 04:35:10;;;;;;;5.50;2.58;;;;;;;27.56;46.55;99810.81;5060781;28;20071;-82
2022/05/21 04:37:37;;;;;;;6.22;2.70;;;;;;;27.54;46.51;99807.41;5061649;28;20016;-81
2022/05/21 04:40:06;;;;;;;5.18;2.90;;;;;;;27.54;46.35;99807.41;5060683;28;20035;-81
2022/05/21 04:42:31;;;;;;;3.63;2.30;;;;;;;27.54;46.32;99799.38;5060673;28;20055;-82
2022/05/21 04:44:57;;;;;;;5.80;2.63;;;;;;;27.54;46.53;99802.06;5078462;28;20435;-82
2022/05/21 04:47:22;;;;;;;5.07;2.30;;;;;;;27.51;46.42;99796.97;5061334;28;20020;-83
2022/05/21 04:49:48;;;;;;;5.20;2.80;;;;;;;27.50;46.48;99792.56;5063642;28;20032;-83
2022/05/21 04:52:13;;;;;;;5.35;2.65;;;;;;;27.51;46.36;99788.06;5062002;28;20028;-84
2022/05/21 04:54:39;;;;;;;5.47;2.25;;;;;;;27.49;46.25;99785.50;5062987;28;20028;-84
2022/05/21 04:57:05;;;;;;;5.35;2.40;;;;;;;27.48;46.62;99775.78;5063744;28;20048;-84
2022/05/21 04:59:31;;;;;;;5.30;2.47;;;;;;;27.47;46.21;99782.13;5064301;28;20043;-83
2022/05/21 05:01:58;;;;;;;5.25;2.35;;;;;;;27.46;46.36;99777.75;5065181;28;20028;-84
2022/05/21 05:04:23;;;;;;;5.07;2.72;;;;;;;27.46;46.58;99770.53;5083144;28;20146;-84
2022/05/21 05:06:49;;;;;;;5.90;2.70;;;;;;;27.45;46.68;99770.69;5066846;28;20029;-85
2022/05/21 05:09:19;;;;;;;5.03;2.53;;;;;;;27.45;46.72;99773.38;5085069;28;20076;-84
2022/05/21 05:11:45;;;;;;;5.30;2.70;;;;;;;27.44;46.31;99766.28;5065615;28;20025;-87
2022/05/21 05:14:10;;;;;;;3.60;2.10;;;;;;;27.42;46.44;99762.91;5061665;28;20162;-82
2022/05/21 05:16:36;;;;;;;5.75;2.70;;;;;;;27.43;46.41;99764.59;5077427;28;20363;-83
2022/05/21 05:19:01;;;;;;;5.10;2.78;;;;;;;27.42;46.42;99760.22;5059597;28;20086;-82
2022/05/21 05:21:27;;;;;;;5.25;2.85;;;;;;;27.40;46.81;99759.50;5059569;28;20174;-83
2022/05/21 05:23:52;;;;;;;4.95;2.70;;;;;;;27.38;46.73;99758.75;5059469;28;20067;-81
2022/05/21 05:26:19;;;;;;;4.15;2.50;;;;;;;27.38;46.52;99761.44;5061250;28;20066;-81
2022/05/21 05:28:45;;;;;;;5.68;2.78;;;;;;;27.36;46.67;99755.38;5059527;28;20035;-81
2022/05/21 05:31:11;;;;;;;5.05;2.80;;;;;;;27.36;46.65;99744.66;5076826;28;20048;-81
2022/05/21 05:33:37;;;;;;;4.38;2.58;;;;;;;27.37;46.74;99749.03;5077300;28;20032;-82
2022/05/21 05:36:03;;;;;;;4.47;2.50;;;;;;;27.36;46.61;99747.34;5060369;28;20028;-81
2022/05/21 05:38:28;;;;;;;5.65;3.08;;;;;;;27.36;46.48;99750.00;5060780;28;20040;-82
2022/05/21 05:40:55;;;;;;;4.75;2.40;;;;;;;27.36;46.60;99752.69;5063616;28;20411;-81
2022/05/21 05:43:21;;;;;;;5.20;2.70;;;;;;;27.36;46.75;99753.56;5077340;28;20021;-82
2022/05/21 05:45:53;;;;;;;3.88;2.50;;;;;;;27.33;47.04;99759.16;5082543;28;20009;-84
2022/05/21 05:48:22;;;;;;;5.13;3.10;;;;;;;27.32;46.51;99747.56;5064348;28;20028;-83
2022/05/21 05:50:47;;;;;;;5.78;2.80;;;;;;;27.34;46.91;99750.13;5059021;28;20028;-82
2022/05/21 05:53:13;;;;;;;5.18;2.65;;;;;;;27.33;46.68;99748.44;5059902;28;20039;-82
2022/05/21 05:55:41;;;;;;;4.60;2.67;;;;;;;27.34;46.82;99748.31;5077011;28;20032;-82
2022/05/21 06:00:52;;;;;;;4.13;2.58;;;;;;;27.33;46.67;99745.75;5076703;28;20047;-82
2022/05/21 06:03:18;;;;;;;5.22;2.90;;;;;;;27.36;46.84;99741.97;5060784;28;20046;-83
2022/05/21 06:05:44;;;;;;;4.72;2.65;;;;;;;27.34;47.06;99737.59;5059310;28;20028;-84
2022/05/21 06:08:09;;;;;;;4.50;2.70;;;;;;;27.36;47.04;99736.63;5076915;28;20366;-82
2022/05/21 06:10:38;;;;;;;4.43;2.53;;;;;;;27.34;47.00;99740.28;5062373;28;20453;-82
2022/05/21 06:13:05;;;;;;;5.38;2.65;;;;;;;27.36;47.05;99739.28;5077466;28;20034;-83
2022/05/21 06:15:32;;;;;;;5.13;2.83;;;;;;;27.37;46.81;99741.00;5058675;28;20032;-82
2022/05/21 06:17:58;;;;;;;5.63;2.90;;;;;;;27.36;46.79;99732.13;5058466;28;20035;-82
2022/05/21 06:20:26;;;;;;;4.40;2.33;;;;;;;27.37;46.79;99732.94;5058594;28;20036;-83
2022/05/21 06:22:53;;;;;;;4.30;2.80;;;;;;;27.39;46.82;99728.31;5058283;28;20111;-83
2022/05/21 06:25:21;;;;;;;4.28;2.83;;;;;;;27.39;46.90;99726.50;5058325;28;20139;-82
2022/05/21 06:27:50;;;;;;;4.85;2.47;;;;;;;27.39;46.88;99720.25;5058897;28;20032;-81
2022/05/21 06:30:18;;;;;;;5.60;2.75;;;;;;;27.38;46.92;99718.56;5075891;28;20029;-82
2022/05/21 06:32:43;;;;;;;4.20;2.58;;;;;;;27.38;47.10;99718.56;5075901;28;20425;-83
2022/05/21 06:35:10;;;;;;;4.80;2.70;;;;;;;27.39;46.85;99722.94;5075886;28;20107;-83
2022/05/21 06:37:36;;;;;;;5.05;2.75;;;;;;;27.39;47.10;99729.16;5076122;28;20024;-82
2022/05/21 06:40:04;;;;;;;4.68;2.40;;;;;;;27.41;47.14;99718.31;5060347;28;20028;-83
2022/05/21 06:42:29;;;;;;;4.15;2.33;;;;;;;27.41;47.13;99723.69;5059164;28;20035;-82
2022/05/21 06:44:55;;;;;;;5.05;2.60;;;;;;;27.43;47.21;99721.72;5076239;28;20032;-81
2022/05/21 06:47:20;;;;;;;3.83;2.60;;;;;;;27.42;47.32;99720.88;5058765;28;20056;-82
2022/05/21 06:49:46;;;;;;;6.55;3.05;;;;;;;27.44;46.99;99718.03;5058581;28;20434;-82
2022/05/21 06:52:12;;;;;;;3.78;2.40;;;;;;;27.46;47.21;99718.78;5076137;28;20396;-84
2022/05/21 06:54:37;;;;;;;5.63;2.50;;;;;;;27.45;47.17;99715.25;5059233;28;20024;-83
2022/05/21 06:57:08;;;;;;;6.60;2.65;;;;;;;27.49;47.19;99710.47;5059170;28;20094;-83
2022/05/21 06:59:34;;;;;;;6.30;3.10;;;;;;;27.51;47.10;99711.22;5076598;28;20028;-81
2022/05/21 07:01:59;;;;;;;4.43;2.53;;;;;;;27.54;47.00;99710.94;5076882;28;20103;-82
2022/05/21 07:09:57;;;;;;;5.10;2.65;;;;;;;27.56;47.08;99714.31;5077485;28;20547;-83
2022/05/21 07:12:23;;;;;;;5.05;2.80;;;;;;;27.57;46.99;99726.78;5061411;28;20543;-84
2022/05/21 07:14:48;;;;;;;4.35;2.78;;;;;;;27.59;47.08;99711.44;5061803;28;20074;-84
2022/05/21 07:17:16;;;;;;;5.80;2.92;;;;;;;27.59;47.04;99722.16;5060982;28;20029;-84
2022/05/21 07:19:41;;;;;;;5.60;2.40;;;;;;;27.58;46.88;99720.47;5081020;28;20032;-83
2022/05/21 07:22:08;;;;;;;3.53;2.53;;;;;;;27.57;46.98;99718.72;5080182;28;20099;-83
2022/05/21 07:24:38;;;;;;;5.95;2.80;;;;;;;27.56;47.29;99716.16;5067785;28;20016;-85
2022/05/21 07:27:04;;;;;;;4.40;2.63;;;;;;;27.57;47.23;99718.72;5081815;28;20029;-85
2022/05/21 07:29:29;;;;;;;5.90;2.80;;;;;;;27.58;47.23;99712.41;5063670;28;20365;-85
2022/05/21 07:31:55;;;;;;;6.35;3.10;;;;;;;27.60;47.19;99707.75;5064351;28;20044;-84
2022/05/21 07:34:22;;;;;;;4.32;2.65;;;;;;;27.60;47.14;99701.56;5057885;28;20034;-81
2022/05/21 07:36:48;;;;;;;6.28;2.80;;;;;;;27.60;47.02;99697.03;5074940;28;20111;-81
2022/05/21 07:39:14;;;;;;;5.10;2.60;;;;;;;27.62;47.03;99691.56;5057309;28;20116;-82
2022/05/21 07:41:39;;;;;;;4.55;2.53;;;;;;;27.63;47.13;99695.06;5057108;28;20098;-82
2022/05/21 07:44:05;;;;;;;5.70;2.90;;;;;;;27.65;47.00;99698.47;5076191;28;20024;-82
2022/05/21 07:46:30;;;;;;;5.80;2.60;;;;;;;27.66;47.09;99692.13;5059477;28;20031;-81
2022/05/21 07:48:56;;;;;;;5.20;2.83;;;;;;;27.67;47.10;99691.16;5074707;28;20134;-81
2022/05/21 07:51:21;;;;;;;4.90;2.80;;;;;;;27.69;47.03;99689.22;5074867;28;20056;-84
2022/05/21 07:53:47;;;;;;;5.90;2.78;;;;;;;27.71;46.87;99695.28;5056149;28;20121;-82
2022/05/21 07:56:13;;;;;;;5.38;2.80;;;;;;;27.73;46.77;99690.63;5057086;28;20051;-81
2022/05/21 07:58:40;;;;;;;4.10;2.40;;;;;;;27.74;47.09;99689.63;5058071;28;20521;-81
2022/05/21 08:01:06;;;;;;;4.00;2.50;;;;;;;27.75;46.83;99683.31;5074880;28;20028;-82
2022/05/21 08:03:31;;;;;;;4.30;2.88;;;;;;;27.77;46.75;99686.69;5074719;28;20048;-83
2022/05/21 08:05:57;;;;;;;5.40;2.90;;;;;;;27.78;46.77;99672.31;5057584;28;20093;-83
2022/05/21 08:08:23;;;;;;;4.50;2.40;;;;;;;27.80;46.56;99673.00;5056983;28;20467;-82
2022/05/21 08:10:50;;;;;;;4.80;2.50;;;;;;;27.82;46.60;99671.06;5056725;28;20040;-83
2022/05/21 08:13:16;;;;;;;4.97;2.97;;;;;;;27.84;46.55;99671.78;5056762;28;20446;-82
2022/05/21 08:15:42;;;;;;;4.75;2.58;;;;;;;27.87;46.95;99668.84;5074997;28;20024;-81
2022/05/21 08:18:08;;;;;;;5.10;2.72;;;;;;;27.87;46.66;99666.16;5075207;28;20021;-81
2022/05/21 08:20:35;;;;;;;4.85;2.72;;;;;;;27.91;46.44;99668.56;5074787;28;20361;-82
2022/05/21 08:28:29;;;;;;;5.20;2.40;;;;;;;27.95;46.63;99656.56;5074090;28;20043;-81
2022/05/21 08:30:55;;;;;;;4.47;2.20;;;;;;;27.97;46.35;99659.97;5074242;28;20020;-81
2022/05/21 08:33:22;;;;;;;4.28;2.45;;;;;;;27.97;46.61;99654.59;5056871;28;20473;-82
2022/05/21 08:35:48;;;;;;;3.60;2.58;;;;;;;28.00;46.53;99649.81;5058681;28;20028;-81
2022/05/21 08:38:15;;;;;;;4.18;2.30;;;;;;;28.02;46.61;99652.38;5058014;28;20024;-83
2022/05/21 08:40:54;;;;;;;6.72;2.67;;;;;;;28.04;46.49;99642.38;5056934;28;20021;-81
2022/05/21 08:43:31;;;;;;;5.38;2.60;;;;;;;28.07;46.13;99642.09;5056270;28;20405;-81
2022/05/21 08:46:05;;;;;;;4.68;2.80;;;;;;;28.08;46.56;99635.72;5074258;28;20358;-81
2022/05/21 08:48:32;;;;;;;4.82;2.63;;;;;;;28.09;46.29;99629.38;5056555;28;20035;-82
2022/05/21 08:51:00;;;;;;;5.35;2.45;;;;;;;28.11;46.06;99631.94;5057066;28;20036;-82
2022/05/21 08:53:28;;;;;;;5.22;2.42;;;;;;;28.14;46.01;99624.44;5074274;28;20426;-82
2022/05/21 08:55:58;;;;;;;4.47;2.50;;;;;;;28.14;46.29;99618.25;5074257;28;20039;-81
2022/05/21 08:58:29;;;;;;;3.72;2.20;;;;;;;28.14;45.97;99613.72;5056555;28;20116;-82
2022/05/21 09:00:55;;;;;;;4.22;3.08;;;;;;;28.16;46.12;99621.63;5056486;28;20025;-82
2022/05/21 09:03:24;;;;;;;5.60;2.70;;;;;;;28.19;46.28;99617.84;5062030;28;20074;-84
2022/05/21 09:06:07;;;;;;;4.90;2.13;;;;;;;28.21;46.09;99623.91;5063906;28;20035;-83
2022/05/21 09:08:54;;;;;;;4.53;2.72;;;;;;;28.22;45.94;99618.44;5059928;28;20032;-82
2022/05/21 09:11:34;;;;;;;4.38;2.42;;;;;;;28.24;45.86;99618.31;5078039;28;20040;-81
2022/05/21 09:14:15;;;;;;;5.00;2.55;;;;;;;28.27;46.12;99615.34;5060132;28;20512;-82
2022/05/21 09:16:56;;;;;;;3.40;2.13;;;;;;;28.28;45.81;99615.19;5063719;28;20338;-82
2022/05/21 09:19:28;;;;;;;4.68;2.38;;;;;;;28.30;45.99;99609.69;5079121;28;20029;-82
2022/05/21 09:22:01;;;;;;;3.95;2.70;;;;;;;28.31;46.06;99608.72;5061864;28;20095;-81
2022/05/21 09:24:34;;;;;;;4.15;2.33;;;;;;;28.34;45.90;99604.91;5062316;28;20055;-82
2022/05/21 09:27:00;;;;;;;4.15;2.30;;;;;;;28.35;45.87;99604.78;5061962;28;20416;-82
2022/05/21 09:29:31;;;;;;;4.63;2.70;;;;;;;28.37;45.74;99602.78;5080672;28;20020;-82
2022/05/21 09:31:57;;;;;;;3.55;2.30;;;;;;;28.39;46.02;99600.81;5063521;28;20043;-82
2022/05/21 09:34:35;;;;;;;4.35;2.55;;;;;;;28.40;45.65;99607.03;5063937;28;20063;-84
2022/05/21 09:37:01;;;;;;;4.07;2.10;;;;;;;28.43;45.86;99609.44;5063762;28;20055;-84
2022/05/21 09:39:33;;;;;;;5.45;2.85;;;;;;;28.45;45.97;99614.66;5082098;28;20028;-84
2022/05/21 09:45:27;;;;;;;3.88;2.53;;;;;;;28.48;45.85;99603.66;5083357;28;20046;-84
2022/05/21 09:48:05;;;;;;;3.60;2.28;;;;;;;28.51;45.58;99606.03;5066543;28;20030;-85
2022/05/21 09:50:44;;;;;;;4.22;2.30;;;;;;;28.51;45.63;99598.00;5065667;28;20020;-83
2022/05/21 09:53:33;;;;;;;4.22;2.60;;;;;;;28.54;45.76;99600.41;5062279;28;20020;-81
2022/05/21 09:56:02;;;;;;;5.20;3.08;;;;;;;28.54;45.94;99600.41;5062801;28;20101;-81
2022/05/21 09:58:30;;;;;;;4.03;2.25;;;;;;;28.57;45.63;99592.06;5063477;28;20119;-81
2022/05/21 10:00:57;;;;;;;3.65;2.13;;;;;;;28.58;46.04;99588.41;5082120;28;20020;-83
2022/05/21 10:03:41;;;;;;;3.92;2.65;;;;;;;28.61;45.44;99571.19;5081113;28;20108;-81
2022/05/21 10:06:31;;;;;;;4.30;2.28;;;;;;;28.62;45.76;99567.50;5063462;28;20017;-82
2022/05/21 10:12:08;;;;;;;4.13;2.30;;;;;;;28.65;45.58;99562.69;5080791;28;20128;-82
2022/05/21 10:15:01;;;;;;;4.30;2.30;;;;;;;28.68;45.30;99567.75;5081553;28;20032;-82
2022/05/21 10:17:32;;;;;;;4.93;2.15;;;;;;;28.72;45.32;99570.19;5061971;28;20020;-81
2022/05/21 10:20:11;;;;;;;3.65;2.28;;;;;;;28.72;45.49;99567.50;5062170;28;20028;-83
2022/05/21 10:22:41;;;;;;;3.88;2.45;;;;;;;28.74;45.67;99568.19;5062037;28;20025;-82
2022/05/21 10:25:19;;;;;;;4.97;2.20;;;;;;;28.75;45.58;99553.75;5063414;28;20025;-82
2022/05/21 10:28:30;;;;;;;4.78;2.50;;;;;;;28.78;45.34;99561.56;5063216;28;20025;-83
2022/05/21 10:31:20;;;;;;;3.83;2.38;;;;;;;28.80;44.95;99549.69;5063317;28;20411;-81
2022/05/21 10:33:53;;;;;;;3.00;1.92;;;;;;;28.82;45.32;99541.47;5063035;28;20024;-82
2022/05/21 10:36:47;;;;;;;5.07;2.60;;;;;;;28.85;45.41;99537.66;5062455;28;20115;-82
2022/05/21 10:39:23;;;;;;;4.85;2.20;;;;;;;28.86;45.04;99532.16;5076162;28;20029;-82
2022/05/21 10:42:01;;;;;;;2.83;2.15;;;;;;;28.87;45.33;99533.03;5058102;28;20046;-83
2022/05/21 10:44:51;;;;;;;3.42;2.20;;;;;;;28.89;45.15;99534.56;5087868;28;20442;-82
2022/05/21 10:47:54;;;;;;;4.53;2.13;;;;;;;28.92;44.97;99536.94;5057791;28;20031;-81
2022/05/21 10:50:42;;;;;;;3.88;2.25;;;;;;;28.94;45.56;99535.00;5075551;28;20437;-81
2022/05/21 10:53:26;;;;;;;4.05;2.00;;;;;;;28.96;45.00;99537.53;5058218;28;20116;-81
2022/05/21 10:56:29;;;;;;;4.78;2.40;;;;;;;28.98;45.45;99534.69;5076074;28;20086;-83
2022/05/21 10:59:08;;;;;;;4.20;2.00;;;;;;;29.00;45.21;99520.13;5076434;28;20035;-83
2022/05/21 11:01:55;;;;;;;3.78;2.10;;;;;;;29.03;44.97;99510.94;5058114;28;20024;-83
2022/05/21 11:04:27;;;;;;;5.55;2.50;;;;;;;29.05;45.42;99507.09;5075966;28;20032;-82
2022/05/21 11:07:28;;;;;;;5.28;2.38;;;;;;;29.07;45.19;99507.81;5057719;28;20031;-81
2022/05/21 11:10:11;;;;;;;3.20;1.92;;;;;;;29.09;45.65;99513.03;5057478;28;20564;-82
2022/05/21 11:12:52;;;;;;;3.28;2.15;;;;;;;29.10;45.28;99506.66;5075198;28;20458;-83
2022/05/21 11:15:43;;;;;;;3.35;2.10;;;;;;;29.13;45.20;99521.63;5060654;28;20398;-82
2022/05/21 11:18:27;;;;;;;3.78;2.53;;;;;;;29.15;45.17;99514.31;5075324;28;20372;-82
2022/05/21 11:21:09;;;;;;;4.40;2.42;;;;;;;29.17;45.09;99518.53;5076165;28;20065;-81
2022/05/21 11:24:00;;;;;;;3.75;2.13;;;;;;;29.19;45.26;99516.53;5075590;28;20032;-84
2022/05/21 11:26:40;;;;;;;4.07;2.45;;;;;;;29.21;45.37;99519.09;5057608;28;20029;-81
2022/05/21 11:29:40;;;;;;;4.00;2.20;;;;;;;29.23;45.41;99514.41;5057345;28;20373;-83
2022/05/21 11:38:18;;;;;;;3.75;1.98;;;;;;;29.30;45.22;99501.22;5075707;28;20055;-83
2022/05/21 11:41:30;;;;;;;5.45;2.42;;;;;;;29.32;45.41;99504.59;5076407;28;20020;-82
2022/05/21 11:47:20;;;;;;;3.03;1.77;;;;;;;29.35;45.36;99499.78;5077176;28;20177;-86
2022/05/21 11:49:59;;;;;;;4.13;2.28;;;;;;;29.38;45.37;99504.00;5044262;28;20101;-83
2022/05/21 11:52:31;;;;;;;4.43;2.42;;;;;;;29.39;45.29;99494.13;5062518;28;20059;-83
2022/05/21 11:54:56;;;;;;;4.43;2.22;;;;;;;29.41;45.69;99487.59;5063407;28;20127;-84
2022/05/21 11:57:34;;;;;;;5.43;2.10;;;;;;;29.42;45.49;99486.59;5060566;28;20068;-84
2022/05/21 12:00:03;;;;;;;5.55;2.70;;;;;;;29.43;45.51;99482.91;5063022;28;20024;-84
2022/05/21 12:02:30;;;;;;;4.30;2.50;;;;;;;29.44;45.38;99470.34;5080338;28;20016;-86
2022/05/21 12:05:08;;;;;;;4.50;2.45;;;;;;;29.47;45.48;99475.41;5062668;28;20021;-87
2022/05/21 12:07:40;;;;;;;5.53;2.47;;;;;;;29.48;45.35;99483.34;5080260;28;20020;-85
2022/05/21 12:10:20;;;;;;;3.70;2.30;;;;;;;29.52;45.44;99477.66;5059275;28;20025;-83
2022/05/21 12:13:16;;;;;;;6.95;2.67;;;;;;;29.53;45.49;99474.00;5074714;28;20366;-84
2022/05/21 12:15:50;;;;;;;3.80;2.10;;;;;;;29.54;45.73;99465.78;5056677;28;20398;-81
2022/05/21 12:18:28;;;;;;;4.00;2.28;;;;;;;29.56;45.38;99458.41;5074373;28;20366;-83
2022/05/21 12:20:54;;;;;;;5.05;2.33;;;;;;;29.58;45.69;99455.59;5056629;28;20182;-84
2022/05/21 12:23:32;;;;;;;4.22;2.20;;;;;;;29.59;45.67;99451.91;5075094;28;20077;-84
2022/05/21 12:26:22;;;;;;;4.85;2.55;;;;;;;29.61;45.71;99455.28;5070713;28;20048;-83
2022/05/21 12:29:13;;;;;;;4.75;2.20;;;;;;;29.64;45.46;99454.13;5040099;28;20059;-83
2022/05/21 12:32:09;;;;;;;4.80;2.72;;;;;;;29.65;45.43;99448.59;5044464;28;20157;-83